createdAt,value
2018-06-20T00:03:48.551Z,2.50
2018-06-20T00:07:51.975Z,2.72
2018-06-20T00:11:55.391Z,2.60
2018-06-20T00:15:59.620Z,2.70
2018-06-20T00:20:03.056Z,2.67
2018-06-20T00:24:06.539Z,2.70
2018-06-20T00:28:09.942Z,2.70
2018-06-20T00:32:13.381Z,3.05
2018-06-20T00:36:16.828Z,2.80
2018-06-20T00:40:20.270Z,2.67
2018-06-20T00:44:23.698Z,3.47
2018-06-20T00:48:27.154Z,2.90
2018-06-20T00:52:30.608Z,2.77
2018-06-20T00:56:34.067Z,2.93
2018-06-20T01:00:37.939Z,2.93
2018-06-20T01:04:41.397Z,2.73
2018-06-20T01:08:44.925Z,2.90
2018-06-20T01:12:48.339Z,3.10
2018-06-20T01:16:51.869Z,2.80
2018-06-20T01:20:55.294Z,3.10
2018-06-20T01:24:58.735Z,3.30
2018-06-20T01:29:02.160Z,3.20
2018-06-20T01:33:05.602Z,3.00
2018-06-20T01:37:09.055Z,3.10
2018-06-20T01:41:12.490Z,3.10
2018-06-20T01:45:15.930Z,3.60
2018-06-20T01:49:19.365Z,3.77
2018-06-20T01:53:22.905Z,3.23
2018-06-20T01:57:26.385Z,3.37
2018-06-20T02:01:29.787Z,3.47
2018-06-20T02:05:33.228Z,3.30
2018-06-20T02:09:36.635Z,3.57
2018-06-20T02:13:40.083Z,3.33
2018-06-20T02:17:43.552Z,3.33
2018-06-20T02:21:46.953Z,3.40
2018-06-20T02:25:50.388Z,3.40
2018-06-20T02:29:53.822Z,3.57
2018-06-20T02:33:57.309Z,3.10
2018-06-20T02:38:00.732Z,3.20
2018-06-20T02:42:04.191Z,3.13
2018-06-20T02:46:07.635Z,3.33
2018-06-20T02:50:12.214Z,3.20
2018-06-20T02:54:15.641Z,3.50
2018-06-20T02:58:19.100Z,3.60
2018-06-20T03:02:22.560Z,3.43
2018-06-20T03:06:26.019Z,3.27
2018-06-20T03:10:29.484Z,3.40
2018-06-20T03:14:32.914Z,3.57
2018-06-20T03:18:36.339Z,3.57
2018-06-20T03:22:38.742Z,3.53
2018-06-20T03:26:42.518Z,3.67
2018-06-20T03:30:45.940Z,3.63
2018-06-20T03:34:49.332Z,3.23
2018-06-20T03:38:52.782Z,3.57
2018-06-20T03:42:56.234Z,4.10
2018-06-20T03:46:59.695Z,3.80
2018-06-20T03:51:03.102Z,3.93
2018-06-20T03:55:06.731Z,3.67
2018-06-20T03:59:10.166Z,3.97
2018-06-20T04:03:13.588Z,3.87
2018-06-20T04:07:17.852Z,3.97
2018-06-20T04:11:21.307Z,3.63
2018-06-20T04:15:24.855Z,3.50
2018-06-20T04:19:28.299Z,3.97
2018-06-20T04:23:31.735Z,3.37
2018-06-20T04:27:35.163Z,3.70
2018-06-20T04:31:38.601Z,3.60
2018-06-20T04:35:42.063Z,3.77
2018-06-20T04:39:45.505Z,4.00
2018-06-20T04:43:48.918Z,3.50
2018-06-20T04:47:52.374Z,3.63
2018-06-20T04:51:55.838Z,3.80
2018-06-20T04:55:59.251Z,3.80
2018-06-20T05:00:02.704Z,3.50
2018-06-20T05:04:06.139Z,3.73
2018-06-20T05:08:09.947Z,3.60
2018-06-20T05:12:13.349Z,3.73
2018-06-20T05:16:16.820Z,3.57
2018-06-20T05:20:20.279Z,4.00
2018-06-20T05:24:23.755Z,3.50
2018-06-20T05:28:27.237Z,3.50
2018-06-20T05:32:30.671Z,3.55
2018-06-20T05:36:34.087Z,3.35
2018-06-20T05:40:37.543Z,3.30
2018-06-20T05:44:40.978Z,3.70
2018-06-20T05:48:44.405Z,3.40
2018-06-20T05:52:47.827Z,3.60
2018-06-20T05:56:51.267Z,3.62
2018-06-20T06:00:54.919Z,3.40
2018-06-20T06:04:58.356Z,3.52
2018-06-20T06:09:01.758Z,3.37
2018-06-20T06:13:05.206Z,3.40
2018-06-20T06:17:08.672Z,3.80
2018-06-20T06:21:12.148Z,3.45
2018-06-20T06:25:15.556Z,3.37
2018-06-20T06:29:19.013Z,3.35
2018-06-20T06:33:22.484Z,3.60
2018-06-20T06:37:25.902Z,3.58
2018-06-20T06:41:29.345Z,3.50
2018-06-20T06:45:32.786Z,3.60
2018-06-20T06:49:36.288Z,3.80
2018-06-20T06:53:39.628Z,3.60
2018-06-20T06:57:43.083Z,3.67
2018-06-20T07:01:46.527Z,3.65
2018-06-20T07:05:49.954Z,3.52
2018-06-20T07:09:53.377Z,3.67
2018-06-20T07:13:56.807Z,3.80
2018-06-20T07:18:00.212Z,3.70
2018-06-20T07:22:03.662Z,3.40
2018-06-20T07:26:07.126Z,3.62
2018-06-20T07:30:10.627Z,3.80
2018-06-20T07:34:14.073Z,3.60
2018-06-20T07:38:17.533Z,3.40
2018-06-20T07:42:21.020Z,4.30
2018-06-20T07:46:24.498Z,3.80
2018-06-20T07:50:27.934Z,3.45
2018-06-20T07:54:31.382Z,3.55
2018-06-20T07:58:40.005Z,3.37
2018-06-20T08:02:59.832Z,3.35
2018-06-20T08:07:08.557Z,3.30
2018-06-20T08:11:17.418Z,3.50
2018-06-20T08:15:26.274Z,3.62
2018-06-20T08:19:35.058Z,3.35
2018-06-20T08:23:38.482Z,3.50
2018-06-20T08:27:41.947Z,3.20
2018-06-20T08:31:45.398Z,3.33
2018-06-20T08:35:48.830Z,3.60
2018-06-20T08:39:52.269Z,3.70
2018-06-20T08:43:55.731Z,3.65
2018-06-20T08:47:59.177Z,3.50
2018-06-20T08:52:02.612Z,3.50
2018-06-20T08:56:06.045Z,3.47
2018-06-20T09:00:09.528Z,3.05
2018-06-20T09:04:18.134Z,2.95
2018-06-20T09:08:26.942Z,2.90
2018-06-20T09:12:35.706Z,3.00
2018-06-20T09:16:44.430Z,2.90
2018-06-20T09:20:47.903Z,3.22
2018-06-20T09:24:51.358Z,3.30
2018-06-20T09:28:54.844Z,3.00
2018-06-20T09:32:58.258Z,3.62
2018-06-20T09:37:01.899Z,3.17
2018-06-20T09:41:05.338Z,3.62
2018-06-20T09:45:08.759Z,3.17
2018-06-20T09:49:12.187Z,3.30
2018-06-20T09:53:15.629Z,3.10
2018-06-20T09:57:19.074Z,3.47
2018-06-20T10:01:27.804Z,3.02
2018-06-20T10:05:36.529Z,2.75
2018-06-20T10:09:45.151Z,3.50
2018-06-20T10:13:50.134Z,3.50
2018-06-20T10:17:53.561Z,3.15
2018-06-20T10:21:57.249Z,3.25
2018-06-20T10:26:00.704Z,3.20
2018-06-20T10:30:04.400Z,3.40
2018-06-20T10:34:07.860Z,3.17
2018-06-20T10:38:11.248Z,3.20
2018-06-20T10:42:14.702Z,3.25
2018-06-20T10:46:23.597Z,2.95
2018-06-20T10:50:26.855Z,3.00
2018-06-20T10:54:30.308Z,3.40
2018-06-20T10:58:38.963Z,3.10
2018-06-20T11:02:47.534Z,2.98
2018-06-20T11:06:56.060Z,3.10
2018-06-20T11:11:04.648Z,2.90
2018-06-20T11:15:08.129Z,3.12
2018-06-20T11:19:11.577Z,2.80
2018-06-20T11:23:15.063Z,3.00
2018-06-20T11:27:18.511Z,3.00
2018-06-20T11:31:21.962Z,3.08
2018-06-20T11:35:25.371Z,3.12
2018-06-20T11:39:28.906Z,2.95
2018-06-20T11:43:32.300Z,3.40
2018-06-20T11:47:42.179Z,3.40
2018-06-20T11:51:45.655Z,2.85
2018-06-20T11:55:49.062Z,3.15
2018-06-20T11:59:57.786Z,3.12
2018-06-20T12:04:06.378Z,3.33
2018-06-20T12:08:15.164Z,3.12
2018-06-20T12:12:23.933Z,2.85
2018-06-20T12:16:28.247Z,2.98
2018-06-20T12:20:36.809Z,3.20
2018-06-20T12:24:45.286Z,2.92
2018-06-20T12:28:54.040Z,3.40
2018-06-20T12:33:02.543Z,3.20
2018-06-20T12:37:11.148Z,3.05
2018-06-20T12:41:19.631Z,3.10
2018-06-20T12:45:23.183Z,4.40
2018-06-20T12:49:33.593Z,3.15
2018-06-20T12:53:37.017Z,3.42
2018-06-20T12:57:42.024Z,3.02
2018-06-20T13:01:45.483Z,3.12
2018-06-20T13:05:48.929Z,3.40
2018-06-20T13:09:52.384Z,2.90
2018-06-20T13:13:55.835Z,2.98
2018-06-20T13:17:59.276Z,3.27
2018-06-20T13:22:02.767Z,3.50
2018-06-20T13:26:06.207Z,2.98
2018-06-20T13:30:10.856Z,3.00
2018-06-20T13:34:19.646Z,2.98
2018-06-20T13:38:28.196Z,3.10
2018-06-20T13:42:36.901Z,3.00
2018-06-20T13:46:45.430Z,3.10
2018-06-20T13:50:48.891Z,3.33
2018-06-20T13:54:52.331Z,3.30
2018-06-20T13:58:55.791Z,3.27
2018-06-20T14:02:59.261Z,3.22
2018-06-20T14:07:02.714Z,3.20
2018-06-20T14:11:06.172Z,3.75
2018-06-20T14:15:09.619Z,3.72
2018-06-20T14:19:13.029Z,3.55
2018-06-20T14:23:16.431Z,3.50
2018-06-20T14:27:19.879Z,3.30
2018-06-20T14:31:28.630Z,3.37
2018-06-20T14:35:37.424Z,3.40
2018-06-20T14:39:45.986Z,3.75
2018-06-20T14:43:55.229Z,3.45
2018-06-20T14:47:58.662Z,3.37
2018-06-20T14:52:02.093Z,3.40
2018-06-20T14:56:05.559Z,3.30
2018-06-20T15:00:09.041Z,3.60
2018-06-20T15:04:12.498Z,3.35
2018-06-20T15:08:15.956Z,3.40
2018-06-20T15:12:19.392Z,3.80
2018-06-20T15:16:28.950Z,3.60
2018-06-20T15:20:32.367Z,2.98
2018-06-20T15:24:35.831Z,3.47
2018-06-20T15:28:44.528Z,3.40
2018-06-20T15:32:53.364Z,3.45
2018-06-20T15:37:02.213Z,3.40
2018-06-20T15:41:05.910Z,3.30
2018-06-20T15:45:09.377Z,3.37
2018-06-20T15:49:12.804Z,3.33
2018-06-20T15:53:16.250Z,3.10
2018-06-20T15:57:19.694Z,3.22
2018-06-20T16:01:23.119Z,3.15
2018-06-20T16:05:26.554Z,3.10
2018-06-20T16:09:35.225Z,3.52
2018-06-20T16:13:38.664Z,3.27
2018-06-20T16:17:42.240Z,3.27
2018-06-20T16:21:50.973Z,3.40
2018-06-20T16:25:59.662Z,3.17
2018-06-20T16:30:08.495Z,3.60
2018-06-20T16:34:11.962Z,3.20
2018-06-20T16:38:15.384Z,3.20
2018-06-20T16:42:18.834Z,3.00
2018-06-20T16:46:22.386Z,3.22
2018-06-20T16:50:25.808Z,3.67
2018-06-20T16:54:29.258Z,3.50
2018-06-20T16:58:32.666Z,3.60
2018-06-20T17:02:37.594Z,3.80
2018-06-20T17:06:41.051Z,3.50
2018-06-20T17:10:44.472Z,3.65
2018-06-20T17:14:53.284Z,3.33
2018-06-20T17:19:02.058Z,3.40
2018-06-20T17:23:10.625Z,3.47
2018-06-20T17:27:14.101Z,3.17
2018-06-20T17:31:17.505Z,3.30
2018-06-20T17:35:21.011Z,3.67
2018-06-20T17:39:24.445Z,3.47
2018-06-20T17:43:27.900Z,3.72
2018-06-20T17:47:32.706Z,4.40
2018-06-20T17:51:36.181Z,4.05
2018-06-20T17:55:39.622Z,3.80
2018-06-20T17:59:43.163Z,3.90
2018-06-20T18:03:46.604Z,3.70
2018-06-20T18:07:55.323Z,3.70
2018-06-20T18:12:03.985Z,4.10
2018-06-20T18:16:12.728Z,3.80
2018-06-20T18:20:16.150Z,4.60
2018-06-20T18:24:19.577Z,4.28
2018-06-20T18:28:23.047Z,4.62
2018-06-20T18:32:26.575Z,4.67
2018-06-20T18:36:30.015Z,5.00
2018-06-20T18:40:33.432Z,5.12
2018-06-20T18:44:36.879Z,5.55
2018-06-20T18:48:40.407Z,5.00
2018-06-20T18:52:43.853Z,4.85
2018-06-20T18:56:47.259Z,4.97
2018-06-20T19:00:56.045Z,4.40
2018-06-20T19:05:04.828Z,4.37
2018-06-20T19:09:12.862Z,4.08
2018-06-20T19:13:16.330Z,3.92
2018-06-20T19:17:19.744Z,3.83
2018-06-20T19:21:23.235Z,3.95
2018-06-20T19:25:26.652Z,4.00
2018-06-20T19:29:30.121Z,3.77
2018-06-20T19:33:33.561Z,6.67
2018-06-20T19:37:36.974Z,5.17
2018-06-20T19:41:40.603Z,4.40
2018-06-20T19:45:44.020Z,4.58
2018-06-20T19:49:47.458Z,4.20
2018-06-20T19:53:50.875Z,4.80
2018-06-20T19:57:54.328Z,4.90
2018-06-20T20:01:57.787Z,5.53
2018-06-20T20:06:01.249Z,5.75
2018-06-20T20:10:04.717Z,6.60
2018-06-20T20:14:08.510Z,6.62
2018-06-20T20:18:12.014Z,6.60
2018-06-20T20:22:15.432Z,7.20
2018-06-20T20:26:18.878Z,6.87
2018-06-20T20:30:22.337Z,6.92
2018-06-20T20:34:25.710Z,6.53
2018-06-20T20:38:29.141Z,6.42
2018-06-20T20:42:32.566Z,6.22
2018-06-20T20:46:36.011Z,5.90
2018-06-20T20:50:39.456Z,6.05
2018-06-20T20:54:43.216Z,5.33
2018-06-20T20:58:46.746Z,5.28
2018-06-20T21:02:50.188Z,5.10
2018-06-20T21:06:53.642Z,5.50
2018-06-20T21:10:57.131Z,4.97
2018-06-20T21:15:00.566Z,5.17
2018-06-20T21:19:04.000Z,4.90
2018-06-20T21:23:07.447Z,5.20
2018-06-20T21:27:10.941Z,5.40
2018-06-20T21:31:14.387Z,5.35
2018-06-20T21:35:17.799Z,5.92
2018-06-20T21:39:21.250Z,6.03
2018-06-20T21:43:24.670Z,6.35
2018-06-20T21:47:28.089Z,6.17
2018-06-20T21:51:31.754Z,6.08
2018-06-20T21:55:35.242Z,6.70
2018-06-20T21:59:38.707Z,6.70
2018-06-20T22:03:42.150Z,6.60
2018-06-20T22:07:45.547Z,6.42
2018-06-20T22:11:48.986Z,6.03
2018-06-20T22:15:52.450Z,6.05
2018-06-20T22:19:55.856Z,6.58
2018-06-20T22:24:00.595Z,5.85
2018-06-20T22:28:04.058Z,5.78
2018-06-20T22:32:07.490Z,5.35
2018-06-20T22:36:10.949Z,5.92
2018-06-20T22:40:14.401Z,5.90
2018-06-20T22:44:17.809Z,5.80
2018-06-20T22:48:21.229Z,5.83
2018-06-20T22:52:24.630Z,6.10
2018-06-20T22:56:28.405Z,5.80
2018-06-20T23:00:31.850Z,6.17
2018-06-20T23:04:35.297Z,6.20
2018-06-20T23:08:38.728Z,5.75
2018-06-20T23:12:42.168Z,6.08
2018-06-20T23:16:45.600Z,6.22
2018-06-20T23:20:49.013Z,5.95
2018-06-20T23:24:52.439Z,6.72
2018-06-20T23:28:55.917Z,6.50
2018-06-20T23:32:59.327Z,6.53
2018-06-20T23:37:02.755Z,6.95
2018-06-20T23:41:06.178Z,6.37
2018-06-20T23:45:09.618Z,6.67
2018-06-20T23:49:13.001Z,6.47
2018-06-20T23:53:16.439Z,6.92
2018-06-20T23:57:19.894Z,6.75
